createdAt,value
2019-01-25T00:01:53.285Z,22.42
2019-01-25T00:04:23.595Z,24.27
2019-01-25T00:06:53.937Z,23.30
2019-01-25T00:09:24.474Z,21.85
2019-01-25T00:11:54.953Z,22.22
2019-01-25T00:14:25.094Z,22.58
2019-01-25T00:16:55.966Z,22.67
2019-01-25T00:19:26.642Z,22.70
2019-01-25T00:21:57.060Z,21.65
2019-01-25T00:24:27.439Z,22.90
2019-01-25T00:26:58.558Z,21.42
2019-01-25T00:29:28.692Z,21.80
2019-01-25T00:31:59.059Z,21.90
2019-01-25T00:34:29.920Z,22.10
2019-01-25T00:37:00.369Z,23.22
2019-01-25T00:39:30.455Z,22.82
2019-01-25T00:42:00.740Z,21.37
2019-01-25T00:44:31.439Z,22.35
2019-01-25T00:47:01.771Z,22.27
2019-01-25T00:49:32.455Z,21.77
2019-01-25T00:52:02.710Z,22.42
2019-01-25T00:54:33.042Z,22.55
2019-01-25T00:57:03.374Z,22.00
2019-01-25T00:59:33.812Z,23.10
2019-01-25T01:02:04.335Z,23.95
2019-01-25T01:04:34.684Z,24.05
2019-01-25T01:07:05.076Z,21.75
2019-01-25T01:09:35.391Z,22.35
2019-01-25T01:12:05.834Z,21.42
2019-01-25T01:14:36.832Z,20.55
2019-01-25T01:17:07.881Z,20.95
2019-01-25T01:19:38.015Z,23.92
2019-01-25T01:22:08.759Z,22.07
2019-01-25T01:24:40.356Z,23.62
2019-01-25T01:27:11.109Z,22.75
2019-01-25T01:29:41.658Z,21.15
2019-01-25T01:32:11.907Z,22.07
2019-01-25T01:34:42.293Z,21.05
2019-01-25T01:37:12.583Z,21.20
2019-01-25T01:39:42.808Z,21.62
2019-01-25T01:42:13.319Z,22.75
2019-01-25T01:44:43.743Z,21.33
2019-01-25T01:47:14.266Z,22.93
2019-01-25T01:49:46.123Z,21.75
2019-01-25T01:52:16.829Z,22.45
2019-01-25T01:54:48.156Z,22.85
2019-01-25T01:57:20.126Z,23.05
2019-01-25T01:59:50.823Z,22.25
2019-01-25T02:02:21.225Z,21.93
2019-01-25T02:04:51.965Z,21.80
2019-01-25T02:07:22.578Z,20.57
2019-01-25T02:09:52.990Z,22.90
2019-01-25T02:12:23.460Z,22.90
2019-01-25T02:14:53.717Z,22.40
2019-01-25T02:17:24.309Z,21.80
2019-01-25T02:19:54.775Z,22.60
2019-01-25T02:22:25.178Z,19.90
2019-01-25T02:24:56.201Z,21.73
2019-01-25T02:27:26.711Z,20.97
2019-01-25T02:29:57.494Z,20.68
2019-01-25T02:32:28.065Z,22.52
2019-01-25T02:34:58.644Z,20.72
2019-01-25T02:37:28.941Z,22.27
2019-01-25T02:39:59.822Z,22.25
2019-01-25T02:42:30.482Z,21.80
2019-01-25T02:45:01.157Z,21.77
2019-01-25T02:47:31.962Z,22.58
2019-01-25T02:50:02.428Z,20.88
2019-01-25T02:52:32.703Z,22.90
2019-01-25T02:55:03.025Z,21.27
2019-01-25T02:57:33.180Z,21.68
2019-01-25T03:00:05.096Z,22.73
2019-01-25T03:02:35.302Z,21.80
2019-01-25T03:05:07.736Z,21.87
2019-01-25T03:07:37.987Z,22.02
2019-01-25T03:10:11.482Z,22.62
2019-01-25T03:12:41.907Z,21.23
2019-01-25T03:15:15.245Z,22.60
2019-01-25T03:17:45.988Z,22.48
2019-01-25T03:20:17.232Z,21.65
2019-01-25T03:22:47.697Z,21.90
2019-01-25T03:25:26.301Z,20.62
2019-01-25T03:27:57.086Z,21.65
2019-01-25T03:30:28.319Z,22.07
2019-01-25T03:32:59.305Z,22.52
2019-01-25T03:35:29.292Z,20.92
2019-01-25T03:38:00.244Z,21.95
2019-01-25T03:40:30.614Z,21.77
2019-01-25T03:43:00.936Z,22.00
2019-01-25T03:45:31.365Z,22.10
2019-01-25T03:48:01.501Z,21.57
2019-01-25T03:50:31.939Z,21.60
2019-01-25T03:53:02.664Z,20.88
2019-01-25T03:55:33.690Z,22.67
2019-01-25T03:58:04.808Z,21.23
2019-01-25T04:00:34.915Z,22.40
2019-01-25T04:03:05.481Z,22.93
2019-01-25T04:05:35.930Z,23.32
2019-01-25T04:08:06.263Z,22.62
2019-01-25T04:10:36.655Z,22.42
2019-01-25T04:13:08.202Z,22.30
2019-01-25T04:15:38.902Z,21.70
2019-01-25T04:18:09.380Z,23.00
2019-01-25T04:20:39.557Z,21.68
2019-01-25T04:23:09.929Z,21.57
2019-01-25T04:25:40.246Z,22.95
2019-01-25T04:28:10.692Z,21.65
2019-01-25T04:30:40.988Z,22.73
2019-01-25T04:33:11.278Z,22.77
2019-01-25T04:35:41.613Z,22.85
2019-01-25T04:38:12.553Z,22.13
2019-01-25T04:40:42.827Z,22.82
2019-01-25T04:43:13.434Z,22.95
2019-01-25T04:45:44.095Z,23.52
2019-01-25T04:48:14.705Z,21.85
2019-01-25T04:50:45.134Z,21.30
2019-01-25T04:53:15.612Z,22.10
2019-01-25T04:55:46.018Z,21.35
2019-01-25T04:58:16.520Z,22.58
2019-01-25T05:00:47.060Z,23.15
2019-01-25T05:03:17.529Z,22.65
2019-01-25T05:05:47.792Z,22.40
2019-01-25T05:08:18.954Z,22.17
2019-01-25T05:10:49.643Z,23.00
2019-01-25T05:13:19.768Z,23.15
2019-01-25T05:15:49.885Z,25.57
2019-01-25T05:18:21.209Z,22.98
2019-01-25T05:20:51.880Z,24.10
2019-01-25T05:23:22.087Z,23.32
2019-01-25T05:25:52.419Z,23.60
2019-01-25T05:28:22.837Z,22.77
2019-01-25T05:30:58.388Z,24.10
2019-01-25T05:33:28.610Z,23.32
2019-01-25T05:35:59.032Z,25.43
2019-01-25T05:38:29.484Z,24.85
2019-01-25T05:40:59.595Z,23.75
2019-01-25T05:43:34.622Z,24.70
2019-01-25T05:46:05.139Z,24.67
2019-01-25T05:48:35.330Z,23.27
2019-01-25T05:51:05.885Z,25.88
2019-01-25T05:53:36.155Z,23.05
2019-01-25T05:56:07.091Z,23.65
2019-01-25T05:58:37.345Z,26.05
2019-01-25T06:01:07.352Z,24.37
2019-01-25T06:03:37.302Z,25.12
2019-01-25T06:06:07.952Z,25.43
2019-01-25T06:08:43.901Z,24.95
2019-01-25T06:11:11.399Z,23.57
2019-01-25T06:13:42.090Z,23.62
2019-01-25T06:16:12.590Z,26.52
2019-01-25T06:18:43.222Z,25.75
2019-01-25T06:21:14.438Z,25.15
2019-01-25T06:23:45.429Z,23.83
2019-01-25T06:26:16.293Z,26.23
2019-01-25T06:28:49.734Z,25.92
2019-01-25T06:31:20.081Z,24.95
2019-01-25T06:33:50.353Z,27.32
2019-01-25T06:36:20.375Z,26.35
2019-01-25T06:38:50.356Z,25.68
2019-01-25T06:41:20.406Z,25.92
2019-01-25T06:43:51.105Z,27.80
2019-01-25T06:46:21.891Z,26.80
2019-01-25T06:48:52.459Z,26.25
2019-01-25T06:51:22.604Z,25.80
2019-01-25T06:53:52.784Z,26.15
2019-01-25T06:56:23.127Z,25.97
2019-01-25T06:58:55.209Z,26.27
2019-01-25T07:01:30.059Z,26.65
2019-01-25T07:04:00.166Z,26.50
2019-01-25T07:06:30.519Z,26.87
2019-01-25T07:09:01.224Z,26.37
2019-01-25T07:11:31.879Z,27.07
2019-01-25T07:14:02.490Z,26.60
2019-01-25T07:16:33.162Z,27.60
2019-01-25T07:19:03.869Z,28.85
2019-01-25T07:21:34.270Z,26.93
2019-01-25T07:24:06.427Z,25.43
2019-01-25T07:26:37.259Z,28.23
2019-01-25T07:29:07.803Z,28.30
2019-01-25T07:31:38.545Z,27.65
2019-01-25T07:34:09.342Z,26.87
2019-01-25T07:36:39.569Z,26.00
2019-01-25T07:39:12.908Z,26.85
2019-01-25T07:41:43.366Z,24.45
2019-01-25T07:44:13.547Z,25.15
2019-01-25T07:46:43.788Z,24.02
2019-01-25T07:49:13.844Z,23.85
2019-01-25T07:51:44.048Z,21.93
2019-01-25T07:54:14.105Z,21.17
2019-01-25T07:56:44.198Z,21.25
2019-01-25T07:59:14.588Z,21.62
2019-01-25T08:01:44.760Z,22.52
2019-01-25T08:04:14.850Z,22.00
2019-01-25T08:06:45.459Z,24.07
2019-01-25T08:09:16.070Z,21.77
2019-01-25T08:11:46.310Z,23.57
2019-01-25T08:14:16.740Z,24.70
2019-01-25T08:16:47.158Z,23.18
2019-01-25T08:19:17.541Z,24.37
2019-01-25T08:21:48.666Z,23.38
2019-01-25T08:24:19.268Z,23.45
2019-01-25T08:26:50.155Z,22.90
2019-01-25T08:29:27.670Z,22.45
2019-01-25T08:31:53.020Z,22.80
2019-01-25T08:34:24.298Z,21.62
2019-01-25T08:36:54.946Z,21.62
2019-01-25T08:39:25.740Z,23.42
2019-01-25T08:41:56.266Z,23.20
2019-01-25T08:44:26.603Z,23.67
2019-01-25T08:46:57.344Z,24.40
2019-01-25T08:49:27.689Z,22.95
2019-01-25T08:51:57.869Z,24.77
2019-01-25T08:54:28.066Z,25.15
2019-01-25T08:56:58.283Z,25.68
2019-01-25T08:59:28.428Z,25.32
2019-01-25T09:01:58.712Z,25.97
2019-01-25T09:04:29.058Z,29.45
2019-01-25T09:06:59.257Z,31.97
2019-01-25T09:09:29.798Z,28.12
2019-01-25T09:11:59.918Z,26.40
2019-01-25T09:14:30.199Z,27.62
2019-01-25T09:17:00.410Z,27.85
2019-01-25T09:19:30.885Z,28.55
2019-01-25T09:22:01.113Z,29.00
2019-01-25T09:24:31.199Z,27.48
2019-01-25T09:27:01.403Z,27.32
2019-01-25T09:29:31.885Z,27.37
2019-01-25T09:32:02.064Z,25.80
2019-01-25T09:34:32.432Z,27.95
2019-01-25T09:37:02.526Z,26.00
2019-01-25T09:39:32.762Z,26.15
2019-01-25T09:42:03.115Z,30.43
2019-01-25T09:44:33.102Z,25.60
2019-01-25T09:47:03.510Z,25.40
2019-01-25T09:49:33.787Z,25.82
2019-01-25T09:52:04.284Z,28.32
2019-01-25T09:54:34.783Z,27.82
2019-01-25T09:57:05.132Z,27.40
2019-01-25T09:59:35.450Z,27.52
2019-01-25T10:02:05.884Z,27.15
2019-01-25T10:04:36.528Z,27.67
2019-01-25T10:07:06.801Z,25.10
2019-01-25T10:09:36.901Z,27.13
2019-01-25T10:12:07.131Z,24.77
2019-01-25T10:14:37.212Z,26.65
2019-01-25T10:17:07.544Z,26.60
2019-01-25T10:19:37.998Z,25.30
2019-01-25T10:22:08.818Z,26.85
2019-01-25T10:24:38.871Z,25.10
2019-01-25T10:27:09.106Z,25.35
2019-01-25T10:29:39.365Z,28.07
2019-01-25T10:32:10.626Z,26.62
2019-01-25T10:34:40.649Z,26.57
2019-01-25T10:37:11.042Z,22.20
2019-01-25T10:39:41.169Z,26.05
2019-01-25T10:42:11.445Z,24.80
2019-01-25T10:44:41.789Z,24.00
2019-01-25T10:47:12.091Z,24.27
2019-01-25T10:49:42.710Z,22.02
2019-01-25T10:52:12.661Z,24.12
2019-01-25T10:54:42.812Z,25.23
2019-01-25T10:57:13.140Z,24.05
2019-01-25T10:59:43.369Z,24.35
2019-01-25T11:02:14.227Z,23.20
2019-01-25T11:04:44.816Z,22.85
2019-01-25T11:07:15.362Z,24.90
2019-01-25T11:09:45.856Z,22.75
2019-01-25T11:12:16.330Z,22.17
2019-01-25T11:14:46.605Z,25.17
2019-01-25T11:17:16.972Z,24.75
2019-01-25T11:19:47.310Z,25.77
2019-01-25T11:22:17.972Z,24.10
2019-01-25T11:24:48.814Z,25.37
2019-01-25T11:27:19.335Z,22.65
2019-01-25T11:29:49.392Z,25.62
2019-01-25T11:32:20.684Z,26.85
2019-01-25T11:34:51.049Z,23.65
2019-01-25T11:37:22.035Z,24.72
2019-01-25T11:39:52.139Z,25.02
2019-01-25T11:42:22.501Z,24.52
2019-01-25T11:44:53.030Z,25.75
2019-01-25T11:47:23.306Z,24.32
2019-01-25T11:49:53.413Z,25.77
2019-01-25T11:52:25.093Z,22.58
2019-01-25T11:54:55.644Z,23.00
2019-01-25T11:57:26.011Z,24.67
2019-01-25T11:59:56.375Z,24.30
2019-01-25T12:02:27.610Z,25.65
2019-01-25T12:04:57.682Z,24.10
2019-01-25T12:07:27.973Z,22.30
2019-01-25T12:09:58.284Z,22.58
2019-01-25T12:12:28.494Z,22.77
2019-01-25T12:14:58.683Z,25.00
2019-01-25T12:17:29.673Z,23.47
2019-01-25T12:20:00.004Z,23.38
2019-01-25T12:22:30.256Z,22.40
2019-01-25T12:25:00.331Z,21.30
2019-01-25T12:27:30.536Z,22.02
2019-01-25T12:30:00.844Z,20.80
2019-01-25T12:32:30.955Z,20.82
2019-01-25T12:35:01.788Z,22.02
2019-01-25T12:37:32.048Z,22.05
2019-01-25T12:40:02.291Z,21.90
2019-01-25T12:42:32.328Z,21.35
2019-01-25T12:45:02.812Z,21.65
2019-01-25T12:47:32.854Z,24.30
2019-01-25T12:50:03.178Z,23.00
2019-01-25T12:52:33.148Z,23.42
2019-01-25T12:55:03.754Z,22.82
2019-01-25T12:57:34.146Z,20.45
2019-01-25T13:00:07.360Z,20.57
2019-01-25T13:02:37.687Z,21.80
2019-01-25T13:05:11.012Z,21.73
2019-01-25T13:07:41.668Z,24.35
2019-01-25T13:10:15.570Z,20.72
2019-01-25T13:12:45.840Z,21.30
2019-01-25T13:15:16.463Z,22.10
2019-01-25T13:17:46.701Z,22.87
2019-01-25T13:20:19.962Z,21.20
2019-01-25T13:22:49.996Z,22.60
2019-01-25T13:25:20.802Z,21.25
2019-01-25T13:27:51.112Z,22.65
2019-01-25T13:30:29.553Z,22.75
2019-01-25T13:32:59.909Z,23.10
2019-01-25T13:35:30.447Z,22.85
2019-01-25T13:38:00.744Z,21.07
2019-01-25T13:40:31.174Z,22.45
2019-01-25T13:43:01.410Z,22.58
2019-01-25T13:45:32.301Z,21.90
2019-01-25T13:48:02.682Z,22.82
2019-01-25T13:50:34.315Z,21.93
2019-01-25T13:53:05.327Z,24.35
2019-01-25T13:55:35.912Z,21.90
2019-01-25T13:58:07.123Z,24.52
2019-01-25T14:00:38.278Z,21.95
2019-01-25T14:03:08.296Z,22.77
2019-01-25T14:05:38.475Z,22.30
2019-01-25T14:08:09.053Z,22.40
2019-01-25T14:10:40.209Z,23.80
2019-01-25T14:13:10.691Z,22.30
2019-01-25T14:15:41.068Z,23.55
2019-01-25T14:18:11.485Z,22.42
2019-01-25T14:20:42.032Z,21.85
2019-01-25T14:23:12.749Z,24.63
2019-01-25T14:25:42.935Z,24.25
2019-01-25T14:28:13.626Z,24.70
2019-01-25T14:30:44.647Z,25.50
2019-01-25T14:33:14.832Z,23.27
2019-01-25T14:35:45.662Z,24.10
2019-01-25T14:38:16.004Z,22.87
2019-01-25T14:40:46.555Z,24.98
2019-01-25T14:43:17.493Z,23.15
2019-01-25T14:45:48.469Z,22.95
2019-01-25T14:48:18.743Z,24.92
2019-01-25T14:50:49.320Z,24.57
2019-01-25T14:53:20.097Z,23.15
2019-01-25T14:55:50.311Z,23.77
2019-01-25T14:58:20.709Z,24.82
2019-01-25T15:00:51.155Z,25.77
2019-01-25T15:03:21.482Z,23.80
2019-01-25T15:05:52.473Z,23.70
2019-01-25T15:08:24.029Z,23.35
2019-01-25T15:10:54.904Z,25.12
2019-01-25T15:13:25.324Z,26.02
2019-01-25T15:15:55.687Z,24.98
2019-01-25T15:18:25.797Z,25.02
2019-01-25T15:20:56.907Z,24.05
2019-01-25T15:23:27.115Z,23.92
2019-01-25T15:25:58.541Z,25.00
2019-01-25T15:28:29.199Z,25.92
2019-01-25T15:30:59.385Z,26.02
2019-01-25T15:33:29.913Z,24.47
2019-01-25T15:36:00.304Z,25.20
2019-01-25T15:38:31.051Z,25.08
2019-01-25T15:41:01.576Z,24.92
2019-01-25T15:43:32.187Z,26.00
2019-01-25T15:46:02.650Z,24.98
2019-01-25T15:48:33.212Z,25.00
2019-01-25T15:51:03.822Z,25.25
2019-01-25T15:53:34.424Z,24.70
2019-01-25T15:56:05.057Z,25.72
2019-01-25T15:58:35.397Z,24.82
2019-01-25T16:01:05.354Z,24.37
2019-01-25T16:03:35.521Z,24.52
2019-01-25T16:06:05.717Z,24.25
2019-01-25T16:08:35.678Z,26.37
2019-01-25T16:11:05.998Z,28.23
2019-01-25T16:13:36.056Z,26.37
2019-01-25T16:16:06.414Z,25.88
2019-01-25T16:18:36.500Z,26.00
2019-01-25T16:21:08.027Z,27.30
2019-01-25T16:23:38.489Z,24.80
2019-01-25T16:26:08.630Z,26.40
2019-01-25T16:28:38.912Z,25.77
2019-01-25T16:31:09.276Z,27.13
2019-01-25T16:33:39.448Z,25.60
2019-01-25T16:36:09.532Z,25.57
2019-01-25T16:38:39.917Z,25.45
2019-01-25T16:41:10.254Z,27.10
2019-01-25T16:43:40.627Z,27.50
2019-01-25T16:46:11.220Z,26.57
2019-01-25T16:48:41.510Z,27.45
2019-01-25T16:51:12.080Z,25.35
2019-01-25T16:53:42.590Z,28.05
2019-01-25T16:56:12.837Z,28.40
2019-01-25T16:58:42.796Z,26.55
2019-01-25T17:01:13.214Z,29.72
2019-01-25T17:03:43.727Z,29.48
2019-01-25T17:06:13.780Z,29.75
2019-01-25T17:08:43.761Z,31.02
2019-01-25T17:11:13.700Z,30.52
2019-01-25T17:13:43.659Z,30.00
2019-01-25T17:16:14.226Z,30.27
2019-01-25T17:18:44.745Z,30.25
2019-01-25T17:21:15.396Z,30.27
2019-01-25T17:23:45.406Z,29.00
2019-01-25T17:26:15.560Z,29.72
2019-01-25T17:28:45.785Z,32.65
2019-01-25T17:31:16.325Z,30.27
2019-01-25T17:33:46.582Z,31.93
2019-01-25T17:36:17.199Z,34.70
2019-01-25T17:38:47.386Z,34.15
2019-01-25T17:41:17.406Z,31.20
2019-01-25T17:43:47.568Z,33.73
2019-01-25T17:46:18.211Z,32.85
2019-01-25T17:48:49.675Z,35.15
2019-01-25T17:51:19.962Z,33.40
2019-01-25T17:53:50.045Z,36.80
2019-01-25T17:56:20.382Z,36.95
2019-01-25T17:58:50.578Z,36.05
2019-01-25T18:01:20.611Z,34.58
2019-01-25T18:03:50.827Z,34.95
2019-01-25T18:06:21.141Z,33.33
2019-01-25T18:08:51.168Z,34.85
2019-01-25T18:11:21.703Z,39.00
2019-01-25T18:13:51.672Z,35.20
2019-01-25T18:16:22.046Z,36.13
2019-01-25T18:18:52.543Z,34.35
2019-01-25T18:21:22.582Z,28.87
2019-01-25T18:23:52.867Z,34.80
2019-01-25T18:26:22.960Z,36.42
2019-01-25T18:28:54.535Z,34.13
2019-01-25T18:31:26.750Z,34.90
2019-01-25T20:00:30.824Z,33.23
2019-01-25T20:03:01.196Z,31.05
2019-01-25T20:05:32.588Z,31.90
2019-01-25T20:08:05.622Z,31.07
2019-01-25T20:10:36.240Z,35.50
2019-01-25T20:13:07.631Z,31.40
2019-01-25T20:15:38.430Z,32.70
2019-01-25T20:18:08.959Z,32.25
2019-01-25T20:20:40.986Z,31.82
2019-01-25T20:23:11.214Z,33.98
2019-01-25T20:25:41.824Z,31.00
2019-01-25T20:28:12.241Z,31.90
2019-01-25T20:30:49.390Z,32.53
2019-01-25T20:33:15.034Z,30.68
2019-01-25T20:35:45.425Z,33.25
2019-01-25T20:38:15.832Z,30.12
2019-01-25T20:40:46.215Z,28.32
2019-01-25T20:43:16.665Z,30.32
2019-01-25T20:45:46.877Z,33.00
2019-01-25T20:48:17.124Z,32.23
2019-01-25T20:50:47.350Z,30.68
2019-01-25T20:53:17.627Z,31.30
2019-01-25T20:55:47.885Z,30.60
2019-01-25T20:58:18.061Z,31.70
2019-01-25T21:00:48.750Z,31.20
2019-01-25T21:03:18.807Z,31.05
2019-01-25T21:05:49.101Z,29.80
2019-01-25T21:08:19.599Z,29.82
2019-01-25T21:10:49.745Z,28.87
2019-01-25T21:13:19.828Z,30.82
2019-01-25T21:15:50.073Z,30.62
2019-01-25T21:18:20.336Z,29.98
2019-01-25T21:20:51.256Z,32.13
2019-01-25T21:23:22.113Z,31.52
2019-01-25T21:25:52.279Z,32.05
2019-01-25T21:28:22.440Z,30.65
2019-01-25T21:30:52.538Z,30.12
2019-01-25T21:33:22.639Z,29.82
2019-01-25T21:35:53.068Z,28.87
2019-01-25T21:38:22.930Z,31.10
2019-01-25T21:40:53.665Z,28.35
2019-01-25T21:43:23.675Z,31.15
2019-01-25T21:45:53.853Z,29.18
2019-01-25T21:48:23.951Z,31.77
2019-01-25T21:50:54.311Z,30.10
2019-01-25T21:53:24.434Z,31.15
2019-01-25T21:55:55.100Z,32.17
2019-01-25T21:58:25.329Z,29.75
2019-01-25T22:00:55.634Z,29.60
2019-01-25T22:03:25.779Z,31.23
2019-01-25T22:05:56.074Z,29.20
2019-01-25T22:08:26.188Z,32.20
2019-01-25T22:10:56.181Z,32.33
2019-01-25T22:13:26.816Z,33.18
2019-01-25T22:15:57.189Z,32.78
2019-01-25T22:18:27.261Z,30.05
2019-01-25T22:20:57.368Z,32.17
2019-01-25T22:23:27.482Z,32.58
2019-01-25T22:25:57.558Z,31.50
2019-01-25T22:28:35.982Z,31.42
2019-01-25T22:31:04.281Z,32.60
2019-01-25T22:33:34.405Z,33.15
2019-01-25T22:36:04.707Z,32.67
2019-01-25T22:38:35.014Z,31.25
2019-01-25T22:41:05.145Z,32.90
2019-01-25T22:43:35.166Z,32.58
2019-01-25T22:46:05.467Z,32.65
2019-01-25T22:48:35.609Z,30.60
2019-01-25T22:51:05.928Z,33.65
2019-01-25T22:53:36.163Z,33.63
2019-01-25T22:56:07.134Z,33.48
2019-01-25T22:58:38.066Z,34.38
2019-01-25T23:01:14.569Z,32.78
2019-01-25T23:03:57.450Z,34.43
2019-01-25T23:06:39.364Z,34.60
2019-01-25T23:09:15.766Z,32.15
2019-01-25T23:11:46.254Z,34.67
2019-01-25T23:14:16.903Z,31.93
2019-01-25T23:16:48.295Z,32.90
2019-01-25T23:19:18.835Z,33.08
2019-01-25T23:21:50.280Z,33.78
2019-01-25T23:24:20.665Z,33.50
2019-01-25T23:26:51.206Z,34.03
2019-01-25T23:29:21.598Z,33.45
2019-01-25T23:31:52.196Z,34.75
2019-01-25T23:34:22.586Z,32.38
2019-01-25T23:36:52.662Z,32.67
2019-01-25T23:39:22.719Z,32.05
2019-01-25T23:41:52.831Z,34.23
2019-01-25T23:44:23.235Z,31.80
2019-01-25T23:46:53.906Z,32.78
2019-01-25T23:49:24.636Z,33.15
2019-01-25T23:51:54.930Z,31.60
2019-01-25T23:54:25.012Z,32.45
2019-01-25T23:56:55.199Z,32.83
2019-01-25T23:59:25.736Z,32.28
